Tropical Cyclones
[Index]
Main Index Home Page Stock Weather Photos Extreme Storms Discussion Storm News and Storm Chasing Reports Tropical Cyclones / Hurricanes / Typhoons Weather Data and Links Wild Fires / Bushfires Weather Observation Techniques Weather Picture Catalogue Tornado Pictures and Reports Stock Video Footage and DVDs for sale
Season 1979-1980 Tropical Cyclone RUTH Track Map
Season 1979-1980 Summaries: [BoM-AU] [JTWC-AU] [JTWC-SIO] [JTWC-SPAC] [JTWC-SH]
<<- Previous TC | BoM 1979-1980 Season | Next TC ->>

click for intensity scale information  Lat/long Grid: Show Hide

 Date Labels: Show Hide

Bureau of Meteorology Tropical Cyclone Data

Name: RUTH
Number: 602 / 197980_09

11 Feb 1980 00:00 UTC to 18 Feb 1980 18:00 UTC

    date/time    lat    long    hPa   cat  kts
1980-02-11 00   18.8   150.4   1003         25          
1980-02-11 06   19.9   151.1   1003         25          
1980-02-11 12   19.3   151.3   1003         25          
1980-02-11 18   18.2   152.2    999         30          
1980-02-12 00   18.1   152.7    999         30          
1980-02-12 06   18.2   154.0    996         30          
1980-02-12 12   18.3   155.3    992    1    40          
1980-02-12 18   18.4   156.9    988    1    40          
1980-02-13 00   18.7   158.6    984    2    50          
1980-02-13 06   20.2   159.5    980    2    55          
1980-02-13 12   20.2   158.3    980    2    55          
1980-02-13 18   20.3   158.2    984    2    50          
1980-02-14 00   20.4   158.3    986    1    50          
1980-02-14 06   20.5   158.4    991    1    40          
1980-02-14 12   21.5   158.3    992    1    40          
1980-02-14 18   21.2   157.8    992    1    40          
1980-02-15 00   20.8   157.7    994    1    30          
1980-02-15 06   20.5   157.7    994    1    30          
1980-02-15 12   20.3   157.7    995    1    30          
1980-02-15 18   20.1   157.8    996         30          
1980-02-16 00   19.9   158.1    997         30          
1980-02-16 06   20.0   158.8    998         30          
1980-02-16 12   20.8   159.4    998         30          
1980-02-16 18   21.3   159.8    998         30          
1980-02-17 00   21.5   160.0    999         30          
1980-02-17 06   22.0   160.4   1000         30          
1980-02-17 12   22.4   160.1   1000         25          
1980-02-17 18   22.5   159.5   1001         25          
1980-02-18 00   22.7   158.3   1002         25          
1980-02-18 06   22.8   157.4   1002         25          
1980-02-18 12   22.4   156.8   1003         25          
1980-02-18 18   20.5   155.8   1003         25          
Winds are 10-min average.

Tropical cyclone tracks developed by Michael Bath using data from the Bureau of Meteorology and Google Maps.


[Australian Severe Weather index] [Copyright Notice] [Email Contacts] [Search This Site] [Privacy Policy]
Document: tropical_cyclone_ruth.htm Updated: 4 April 2018